createdAt,value
2023-05-10T00:00:16.477Z,0.0
2023-05-10T00:18:05.196Z,0.0
2023-05-10T00:24:27.970Z,0.0
2023-05-10T00:30:50.144Z,0.0
2023-05-10T00:37:11.954Z,0.0
2023-05-10T00:43:33.541Z,0.0
2023-05-10T00:49:55.485Z,0.0
2023-05-10T00:56:16.627Z,0.0
2023-05-10T01:02:38.092Z,0.0
2023-05-10T01:08:58.935Z,0.0
2023-05-10T01:15:22.688Z,0.0
2023-05-10T01:21:42.975Z,0.0
2023-05-10T01:28:04.046Z,0.0
2023-05-10T01:40:36.053Z,0.0
2023-05-10T01:46:57.641Z,0.0
2023-05-10T01:53:18.775Z,0.0
2023-05-10T01:59:40.710Z,0.0
2023-05-10T02:06:03.219Z,0.0
2023-05-10T02:12:29.519Z,0.0
2023-05-10T02:18:51.439Z,0.0
2023-05-10T02:25:16.277Z,0.0
2023-05-10T02:31:37.618Z,0.0
2023-05-10T02:44:36.826Z,0.0
2023-05-10T02:50:59.869Z,0.0
2023-05-10T02:57:22.646Z,0.0
2023-05-10T03:03:45.904Z,0.0
2023-05-10T03:13:56.159Z,0.0
2023-05-10T03:20:18.982Z,0.0
2023-05-10T03:26:39.954Z,0.0
2023-05-10T03:33:01.203Z,0.0
2023-05-10T03:39:23.828Z,0.0
2023-05-10T03:49:40.873Z,0.0
2023-05-10T03:59:29.569Z,0.0
2023-05-10T04:05:54.439Z,0.6263210702341139
2023-05-10T04:13:19.683Z,2.5791973244147157
2023-05-10T04:19:43.401Z,3.845919732441471
2023-05-10T04:26:07.346Z,3.9451170568561853
2023-05-10T04:33:23.344Z,3.044882943143813
2023-05-10T04:39:44.592Z,4.307826086956522
2023-05-10T04:46:06.299Z,5.833846153846151
2023-05-10T04:52:27.781Z,6.215418060200668
2023-05-10T04:58:48.856Z,6.7888294314381294
2023-05-10T05:11:51.684Z,6.603177257525088
2023-05-10T05:19:58.028Z,4.423712374581938
2023-05-10T05:30:53.777Z,10.04551839464884
2023-05-10T05:37:15.169Z,8.212307692307693
2023-05-10T05:46:20.534Z,5.7778260869565194
2023-05-10T05:52:44.820Z,4.233578595317725
2023-05-10T06:00:13.649Z,4.742307692307694
2023-05-10T06:06:36.219Z,4.747792642140467
2023-05-10T06:12:57.285Z,5.7676254180602005
2023-05-10T06:24:51.231Z,7.233110367892982
2023-05-10T06:31:12.027Z,5.86953177257525
2023-05-10T06:37:33.614Z,8.32374581939799
2023-05-10T06:51:27.046Z,22.270200668896326
2023-05-10T06:58:21.562Z,29.077458193979922
2023-05-10T07:04:42.841Z,33.5869899665552
2023-05-10T07:11:03.123Z,29.16712374581939
2023-05-10T07:27:24.243Z,54.91444816053512
2023-05-10T07:33:44.994Z,63.10742474916395
2023-05-10T07:41:30.666Z,33.002575250836124
2023-05-10T07:47:51.512Z,20.709933110367885
2023-05-10T07:56:24.376Z,29.321806020066887
2023-05-10T08:05:36.721Z,78.35919732441472
2023-05-10T08:21:28.349Z,71.40565217391304
2023-05-10T08:31:28.886Z,111.98361204013375
2023-05-10T08:37:49.927Z,114.26816053511703
2023-05-10T08:44:11.918Z,75.03244147157191
2023-05-10T08:51:35.141Z,85.53842809364548
2023-05-10T08:57:56.455Z,152.2323745819399
2023-05-10T09:04:18.326Z,190.45200668896314
2023-05-10T09:10:40.604Z,224.96983277591957
2023-05-10T09:17:02.438Z,161.81745819398006
2023-05-10T09:23:24.481Z,248.90946488294313
2023-05-10T09:29:45.941Z,188.8712709030101
2023-05-10T09:42:05.791Z,114.79795986622075
2023-05-10T09:48:28.145Z,126.04732441471572
2023-05-10T09:59:10.346Z,141.1984615384615
2023-05-10T10:05:33.915Z,188.543110367893
2023-05-10T10:11:56.763Z,238.31063545150508
2023-05-10T10:18:19.451Z,96.99963210702346
2023-05-10T10:30:38.881Z,64.08471571906354
2023-05-10T10:37:00.504Z,159.8017056856187
2023-05-10T10:43:23.961Z,294.98451505016743
2023-05-10T10:49:45.986Z,326.05170568561863
2023-05-10T10:56:38.150Z,270.8836120401338
2023-05-10T11:03:00.716Z,216.1079933110367
2023-05-10T11:09:23.145Z,151.4675250836122
2023-05-10T11:15:44.878Z,142.72792642140467
2023-05-10T11:22:07.175Z,120.63033444816057
2023-05-10T11:34:24.445Z,192.2267892976588
2023-05-10T11:40:46.611Z,311.45411371237464
2023-05-10T11:47:10.010Z,152.7807357859532
2023-05-10T11:53:32.008Z,89.83913043478259
2023-05-10T11:59:54.174Z,78.52110367892969
2023-05-10T12:06:16.232Z,42.88311036789298
2023-05-10T12:12:38.442Z,80.26207357859523
2023-05-10T12:19:01.503Z,211.38675585284275
2023-05-10T12:25:28.235Z,114.03642140468241
2023-05-10T12:31:56.516Z,30.511806020066903
2023-05-10T12:38:21.774Z,108.75474916387964
2023-05-10T12:45:00.455Z,92.10715719063538
2023-05-10T12:51:23.186Z,78.9795986622074
2023-05-10T13:03:10.607Z,107.80906354515062
2023-05-10T13:10:42.020Z,168.66665551839472
2023-05-10T13:19:24.118Z,85.58551839464889
2023-05-10T13:25:45.085Z,113.50682274247494
2023-05-10T13:32:07.113Z,250.20344481605366
2023-05-10T13:38:30.123Z,135.3105351170568
2023-05-10T13:44:52.482Z,169.91501672240813
2023-05-10T13:51:25.190Z,113.43424749163881
2023-05-10T14:08:36.726Z,122.09421404682269
2023-05-10T14:15:03.629Z,130.958762541806
2023-05-10T14:27:38.397Z,339.0785953177257
2023-05-10T14:34:02.132Z,396.56013377926416
2023-05-10T14:40:27.821Z,245.80632107023396
2023-05-10T14:48:09.883Z,186.68010033444816
2023-05-10T14:54:36.869Z,128.20979933110374
2023-05-10T15:01:02.250Z,69.99294314381274
2023-05-10T15:07:28.728Z,87.81826086956521
2023-05-10T15:13:58.143Z,71.76819397993313
2023-05-10T15:20:31.726Z,49.29441471571907
2023-05-10T15:26:53.068Z,48.999565217391314
2023-05-10T15:33:15.195Z,102.48033444816056
2023-05-10T15:41:39.965Z,178.95662207357856
2023-05-10T15:48:01.840Z,175.58351170568562
2023-05-10T15:54:23.689Z,74.92384615384617
2023-05-10T16:00:45.782Z,63.355886287625395
2023-05-10T16:07:09.305Z,45.36665551839464
2023-05-10T16:13:32.115Z,31.64060200668896
2023-05-10T16:19:55.838Z,36.26046822742473
2023-05-10T16:27:52.658Z,130.10812709030097
2023-05-10T16:39:22.104Z,150.86481605351176
2023-05-10T16:45:44.940Z,106.6194314381271
2023-05-10T16:56:44.589Z,77.68026755852843
2023-05-10T17:03:08.050Z,52.0641137123746
2023-05-10T17:09:30.387Z,57.5865217391304
2023-05-10T17:15:53.532Z,46.291170568561874
2023-05-10T17:23:32.909Z,35.33929765886287
2023-05-10T17:35:35.483Z,56.84956521739128
2023-05-10T17:41:57.752Z,59.50023411371234
2023-05-10T17:48:26.479Z,29.717056856187302
2023-05-10T18:00:06.216Z,19.57297658862874
2023-05-10T18:06:28.866Z,18.65143812709029
2023-05-10T18:12:50.811Z,22.367725752508363
2023-05-10T18:19:14.954Z,14.472675585284287
2023-05-10T18:25:37.621Z,14.016555183946494
2023-05-10T18:32:09.406Z,14.182575250836127
2023-05-10T18:38:34.963Z,12.8286287625418
2023-05-10T18:44:57.287Z,9.920802675585277
2023-05-10T18:51:19.345Z,7.431872909698993
2023-05-10T18:57:42.972Z,4.86789297658863
2023-05-10T19:04:05.861Z,2.605150501672244
2023-05-10T19:20:00.254Z,0.0
2023-05-10T19:26:20.238Z,0.0
2023-05-10T19:32:40.195Z,0.0
2023-05-10T19:39:00.873Z,0.0
2023-05-10T19:45:20.379Z,0.0
2023-05-10T19:51:44.595Z,0.0
2023-05-10T19:59:39.604Z,0.0
2023-05-10T20:05:59.337Z,0.0
2023-05-10T20:20:26.995Z,0.0
2023-05-10T20:28:40.995Z,0.0
2023-05-10T20:39:41.027Z,0.0
2023-05-10T20:46:01.527Z,0.0
2023-05-10T20:52:30.055Z,0.0
2023-05-10T20:58:50.254Z,0.0
2023-05-10T21:05:15.232Z,0.0
2023-05-10T21:11:36.226Z,0.0
2023-05-10T21:17:55.334Z,0.0
2023-05-10T21:24:17.306Z,0.0
2023-05-10T21:36:34.151Z,0.0
2023-05-10T21:42:56.680Z,0.0
2023-05-10T21:51:16.222Z,0.0
2023-05-10T21:57:37.212Z,0.0
2023-05-10T22:06:52.686Z,0.0
2023-05-10T22:13:13.486Z,0.0
2023-05-10T22:19:32.332Z,0.0
2023-05-10T22:25:50.829Z,0.0
2023-05-10T22:33:29.433Z,0.0
2023-05-10T22:39:48.325Z,0.0
2023-05-10T22:46:07.627Z,0.0
2023-05-10T22:52:26.782Z,0.0
2023-05-10T22:58:45.795Z,0.0
2023-05-10T23:05:04.870Z,0.0
2023-05-10T23:15:48.876Z,0.0
2023-05-10T23:25:36.233Z,0.0
2023-05-10T23:31:55.140Z,0.0
2023-05-10T23:38:14.246Z,0.0
2023-05-10T23:44:33.568Z,0.0
2023-05-10T23:56:25.449Z,0.0
